sensor_id;sensor_type;location;lat;lon;timestamp;P1;durP1;ratioP1;P2;durP2;ratioP2
48014;SDS011;33780;51.034;7.120;2022-07-23T00:00:01;13.25;;;6.85;;
48014;SDS011;33780;51.034;7.120;2022-07-23T00:02:27;12.52;;;7.50;;
48014;SDS011;33780;51.034;7.120;2022-07-23T00:04:52;12.45;;;7.20;;
48014;SDS011;33780;51.034;7.120;2022-07-23T00:07:17;13.60;;;7.53;;
48014;SDS011;33780;51.034;7.120;2022-07-23T00:09:43;16.00;;;7.38;;
48014;SDS011;33780;51.034;7.120;2022-07-23T00:12:08;13.68;;;7.50;;
48014;SDS011;33780;51.034;7.120;2022-07-23T00:14:34;11.52;;;7.30;;
48014;SDS011;33780;51.034;7.120;2022-07-23T00:16:59;12.85;;;7.20;;
48014;SDS011;33780;51.034;7.120;2022-07-23T00:19:24;14.73;;;6.90;;
48014;SDS011;33780;51.034;7.120;2022-07-23T00:21:50;11.45;;;6.88;;
48014;SDS011;33780;51.034;7.120;2022-07-23T00:24:15;13.60;;;6.47;;
48014;SDS011;33780;51.034;7.120;2022-07-23T00:26:40;14.13;;;7.63;;
48014;SDS011;33780;51.034;7.120;2022-07-23T00:29:06;18.23;;;7.82;;
48014;SDS011;33780;51.034;7.120;2022-07-23T00:31:31;15.55;;;7.53;;
48014;SDS011;33780;51.034;7.120;2022-07-23T00:33:56;14.00;;;6.93;;
48014;SDS011;33780;51.034;7.120;2022-07-23T00:36:25;12.07;;;7.05;;
48014;SDS011;33780;51.034;7.120;2022-07-23T00:38:50;13.32;;;6.72;;
48014;SDS011;33780;51.034;7.120;2022-07-23T00:41:15;16.27;;;7.57;;
48014;SDS011;33780;51.034;7.120;2022-07-23T00:43:41;13.52;;;6.68;;
48014;SDS011;33780;51.034;7.120;2022-07-23T00:46:06;13.82;;;6.88;;
48014;SDS011;33780;51.034;7.120;2022-07-23T00:48:31;13.32;;;7.35;;
48014;SDS011;33780;51.034;7.120;2022-07-23T00:50:57;13.52;;;7.30;;
48014;SDS011;33780;51.034;7.120;2022-07-23T00:53:22;13.07;;;6.72;;
48014;SDS011;33780;51.034;7.120;2022-07-23T00:55:48;12.82;;;7.40;;
48014;SDS011;33780;51.034;7.120;2022-07-23T00:58:14;12.70;;;6.97;;
48014;SDS011;33780;51.034;7.120;2022-07-23T01:00:40;15.43;;;7.50;;
48014;SDS011;33780;51.034;7.120;2022-07-23T01:03:06;13.05;;;7.55;;
48014;SDS011;33780;51.034;7.120;2022-07-23T01:05:32;16.30;;;7.78;;
48014;SDS011;33780;51.034;7.120;2022-07-23T01:07:58;13.93;;;7.38;;
48014;SDS011;33780;51.034;7.120;2022-07-23T01:10:23;13.30;;;7.00;;
48014;SDS011;33780;51.034;7.120;2022-07-23T01:13:02;13.07;;;6.93;;
48014;SDS011;33780;51.034;7.120;2022-07-23T01:15:30;14.23;;;6.95;;
48014;SDS011;33780;51.034;7.120;2022-07-23T01:17:56;11.90;;;7.00;;
48014;SDS011;33780;51.034;7.120;2022-07-23T01:20:21;12.75;;;6.80;;
48014;SDS011;33780;51.034;7.120;2022-07-23T01:22:47;12.63;;;6.40;;
48014;SDS011;33780;51.034;7.120;2022-07-23T01:25:12;15.25;;;7.13;;
48014;SDS011;33780;51.034;7.120;2022-07-23T01:27:38;13.07;;;6.90;;
48014;SDS011;33780;51.034;7.120;2022-07-23T01:30:04;12.93;;;6.93;;
48014;SDS011;33780;51.034;7.120;2022-07-23T01:32:30;13.32;;;7.05;;
48014;SDS011;33780;51.034;7.120;2022-07-23T01:34:56;12.75;;;6.32;;
48014;SDS011;33780;51.034;7.120;2022-07-23T01:37:21;14.80;;;7.07;;
48014;SDS011;33780;51.034;7.120;2022-07-23T01:39:46;18.60;;;6.90;;
48014;SDS011;33780;51.034;7.120;2022-07-23T01:42:12;10.32;;;6.40;;
48014;SDS011;33780;51.034;7.120;2022-07-23T01:44:37;11.10;;;6.38;;
48014;SDS011;33780;51.034;7.120;2022-07-23T01:47:02;10.50;;;5.88;;
48014;SDS011;33780;51.034;7.120;2022-07-23T01:49:28;11.07;;;6.20;;
48014;SDS011;33780;51.034;7.120;2022-07-23T01:51:53;10.85;;;6.68;;
48014;SDS011;33780;51.034;7.120;2022-07-23T01:54:25;12.35;;;6.38;;
48014;SDS011;33780;51.034;7.120;2022-07-23T01:56:52;10.93;;;6.22;;
48014;SDS011;33780;51.034;7.120;2022-07-23T01:59:17;11.70;;;6.50;;
48014;SDS011;33780;51.034;7.120;2022-07-23T02:01:42;11.10;;;6.00;;
48014;SDS011;33780;51.034;7.120;2022-07-23T02:04:08;11.45;;;6.00;;
48014;SDS011;33780;51.034;7.120;2022-07-23T02:06:33;9.13;;;5.55;;
48014;SDS011;33780;51.034;7.120;2022-07-23T02:08:58;13.10;;;6.20;;
48014;SDS011;33780;51.034;7.120;2022-07-23T02:11:24;12.13;;;6.03;;
48014;SDS011;33780;51.034;7.120;2022-07-23T02:13:49;11.57;;;6.13;;
48014;SDS011;33780;51.034;7.120;2022-07-23T02:16:14;10.00;;;5.47;;
48014;SDS011;33780;51.034;7.120;2022-07-23T02:18:39;9.50;;;5.38;;
48014;SDS011;33780;51.034;7.120;2022-07-23T02:21:05;9.40;;;5.30;;
48014;SDS011;33780;51.034;7.120;2022-07-23T02:23:30;9.23;;;5.45;;
48014;SDS011;33780;51.034;7.120;2022-07-23T02:25:55;11.70;;;5.63;;
48014;SDS011;33780;51.034;7.120;2022-07-23T02:28:21;11.68;;;6.10;;
48014;SDS011;33780;51.034;7.120;2022-07-23T02:30:46;8.55;;;5.30;;
48014;SDS011;33780;51.034;7.120;2022-07-23T02:33:11;11.07;;;5.63;;
48014;SDS011;33780;51.034;7.120;2022-07-23T02:35:36;10.55;;;5.65;;
48014;SDS011;33780;51.034;7.120;2022-07-23T02:38:02;12.27;;;6.00;;
48014;SDS011;33780;51.034;7.120;2022-07-23T02:40:27;12.05;;;5.75;;
48014;SDS011;33780;51.034;7.120;2022-07-23T02:42:52;9.60;;;5.82;;
48014;SDS011;33780;51.034;7.120;2022-07-23T02:45:18;9.18;;;5.20;;
48014;SDS011;33780;51.034;7.120;2022-07-23T02:47:43;11.27;;;5.85;;
48014;SDS011;33780;51.034;7.120;2022-07-23T02:50:08;9.65;;;5.53;;
48014;SDS011;33780;51.034;7.120;2022-07-23T02:52:34;9.48;;;5.57;;
48014;SDS011;33780;51.034;7.120;2022-07-23T02:54:59;10.43;;;5.75;;
48014;SDS011;33780;51.034;7.120;2022-07-23T02:57:24;10.88;;;5.60;;
48014;SDS011;33780;51.034;7.120;2022-07-23T02:59:50;9.45;;;5.43;;
48014;SDS011;33780;51.034;7.120;2022-07-23T03:02:15;10.93;;;6.07;;
48014;SDS011;33780;51.034;7.120;2022-07-23T03:04:40;9.40;;;5.13;;
48014;SDS011;33780;51.034;7.120;2022-07-23T03:07:07;9.05;;;5.35;;
48014;SDS011;33780;51.034;7.120;2022-07-23T03:09:32;9.35;;;5.53;;
48014;SDS011;33780;51.034;7.120;2022-07-23T03:11:58;9.70;;;5.43;;
48014;SDS011;33780;51.034;7.120;2022-07-23T03:14:23;9.32;;;5.43;;
48014;SDS011;33780;51.034;7.120;2022-07-23T03:16:48;10.55;;;5.60;;
48014;SDS011;33780;51.034;7.120;2022-07-23T03:19:14;12.00;;;5.97;;
48014;SDS011;33780;51.034;7.120;2022-07-23T03:21:40;11.35;;;5.72;;
48014;SDS011;33780;51.034;7.120;2022-07-23T03:24:07;9.10;;;5.43;;
48014;SDS011;33780;51.034;7.120;2022-07-23T03:26:34;12.55;;;5.90;;
48014;SDS011;33780;51.034;7.120;2022-07-23T03:28:59;11.23;;;5.88;;
48014;SDS011;33780;51.034;7.120;2022-07-23T03:31:26;10.05;;;5.65;;
48014;SDS011;33780;51.034;7.120;2022-07-23T03:33:51;11.32;;;5.60;;
48014;SDS011;33780;51.034;7.120;2022-07-23T03:36:17;9.75;;;5.25;;
48014;SDS011;33780;51.034;7.120;2022-07-23T03:38:42;10.20;;;5.60;;
48014;SDS011;33780;51.034;7.120;2022-07-23T03:41:07;10.98;;;6.00;;
48014;SDS011;33780;51.034;7.120;2022-07-23T03:43:33;10.35;;;5.50;;
48014;SDS011;33780;51.034;7.120;2022-07-23T03:45:58;10.05;;;5.63;;
48014;SDS011;33780;51.034;7.120;2022-07-23T03:48:23;10.98;;;5.53;;
48014;SDS011;33780;51.034;7.120;2022-07-23T03:50:49;11.68;;;5.97;;
48014;SDS011;33780;51.034;7.120;2022-07-23T03:53:14;10.43;;;5.82;;
48014;SDS011;33780;51.034;7.120;2022-07-23T03:55:39;11.00;;;5.65;;
48014;SDS011;33780;51.034;7.120;2022-07-23T03:58:05;11.07;;;5.85;;
48014;SDS011;33780;51.034;7.120;2022-07-23T04:00:30;12.38;;;5.85;;
48014;SDS011;33780;51.034;7.120;2022-07-23T04:02:55;10.55;;;5.80;;
48014;SDS011;33780;51.034;7.120;2022-07-23T04:05:21;12.68;;;5.70;;
48014;SDS011;33780;51.034;7.120;2022-07-23T04:07:46;9.45;;;5.60;;
48014;SDS011;33780;51.034;7.120;2022-07-23T04:10:11;10.68;;;5.75;;
48014;SDS011;33780;51.034;7.120;2022-07-23T04:12:37;10.35;;;5.60;;
48014;SDS011;33780;51.034;7.120;2022-07-23T04:15:02;8.77;;;5.05;;
48014;SDS011;33780;51.034;7.120;2022-07-23T04:17:28;9.70;;;5.30;;
48014;SDS011;33780;51.034;7.120;2022-07-23T04:19:53;9.40;;;5.20;;
48014;SDS011;33780;51.034;7.120;2022-07-23T04:22:19;10.98;;;5.10;;
48014;SDS011;33780;51.034;7.120;2022-07-23T04:24:44;11.30;;;4.68;;
48014;SDS011;33780;51.034;7.120;2022-07-23T04:27:09;10.70;;;5.10;;
48014;SDS011;33780;51.034;7.120;2022-07-23T04:29:35;8.10;;;4.43;;
48014;SDS011;33780;51.034;7.120;2022-07-23T04:32:00;9.80;;;4.90;;
48014;SDS011;33780;51.034;7.120;2022-07-23T04:34:26;9.15;;;4.72;;
48014;SDS011;33780;51.034;7.120;2022-07-23T04:36:51;12.68;;;4.57;;
48014;SDS011;33780;51.034;7.120;2022-07-23T04:39:17;7.55;;;4.65;;
48014;SDS011;33780;51.034;7.120;2022-07-23T04:41:43;7.50;;;4.25;;
48014;SDS011;33780;51.034;7.120;2022-07-23T04:44:08;9.18;;;4.45;;
48014;SDS011;33780;51.034;7.120;2022-07-23T04:46:33;7.88;;;4.32;;
48014;SDS011;33780;51.034;7.120;2022-07-23T04:48:59;8.50;;;4.20;;
48014;SDS011;33780;51.034;7.120;2022-07-23T04:51:24;7.85;;;4.53;;
48014;SDS011;33780;51.034;7.120;2022-07-23T04:53:49;7.57;;;4.40;;
48014;SDS011;33780;51.034;7.120;2022-07-23T04:56:15;9.90;;;3.78;;
48014;SDS011;33780;51.034;7.120;2022-07-23T04:58:40;7.60;;;4.13;;
48014;SDS011;33780;51.034;7.120;2022-07-23T05:01:06;6.20;;;3.95;;
48014;SDS011;33780;51.034;7.120;2022-07-23T05:03:32;7.10;;;4.10;;
48014;SDS011;33780;51.034;7.120;2022-07-23T05:05:57;7.93;;;4.25;;
48014;SDS011;33780;51.034;7.120;2022-07-23T05:08:22;6.97;;;4.22;;
48014;SDS011;33780;51.034;7.120;2022-07-23T05:10:48;6.63;;;4.20;;
48014;SDS011;33780;51.034;7.120;2022-07-23T05:13:16;6.15;;;3.72;;
48014;SDS011;33780;51.034;7.120;2022-07-23T05:15:42;6.53;;;3.72;;
48014;SDS011;33780;51.034;7.120;2022-07-23T05:18:08;5.88;;;3.53;;
48014;SDS011;33780;51.034;7.120;2022-07-23T05:20:33;5.80;;;3.50;;
48014;SDS011;33780;51.034;7.120;2022-07-23T05:22:58;5.32;;;3.20;;
48014;SDS011;33780;51.034;7.120;2022-07-23T05:25:24;6.03;;;3.55;;
48014;SDS011;33780;51.034;7.120;2022-07-23T05:27:49;6.55;;;3.67;;
48014;SDS011;33780;51.034;7.120;2022-07-23T05:30:14;6.07;;;3.42;;
48014;SDS011;33780;51.034;7.120;2022-07-23T05:32:40;6.45;;;3.67;;
48014;SDS011;33780;51.034;7.120;2022-07-23T05:35:06;6.35;;;3.95;;
48014;SDS011;33780;51.034;7.120;2022-07-23T05:37:31;5.18;;;3.30;;
48014;SDS011;33780;51.034;7.120;2022-07-23T05:40:00;5.63;;;3.33;;
48014;SDS011;33780;51.034;7.120;2022-07-23T05:42:36;5.63;;;3.33;;
48014;SDS011;33780;51.034;7.120;2022-07-23T05:45:03;6.65;;;3.33;;
48014;SDS011;33780;51.034;7.120;2022-07-23T05:47:38;5.38;;;3.35;;
48014;SDS011;33780;51.034;7.120;2022-07-23T05:50:06;5.97;;;3.53;;
48014;SDS011;33780;51.034;7.120;2022-07-23T05:52:32;5.60;;;3.22;;
48014;SDS011;33780;51.034;7.120;2022-07-23T05:54:57;5.25;;;3.05;;
48014;SDS011;33780;51.034;7.120;2022-07-23T05:57:22;5.10;;;3.22;;
48014;SDS011;33780;51.034;7.120;2022-07-23T05:59:47;6.30;;;3.47;;
48014;SDS011;33780;51.034;7.120;2022-07-23T06:02:13;6.68;;;3.60;;
48014;SDS011;33780;51.034;7.120;2022-07-23T06:04:38;6.65;;;4.13;;
48014;SDS011;33780;51.034;7.120;2022-07-23T06:07:03;6.43;;;3.78;;
48014;SDS011;33780;51.034;7.120;2022-07-23T06:09:29;6.63;;;3.70;;
48014;SDS011;33780;51.034;7.120;2022-07-23T06:11:54;5.78;;;3.75;;
48014;SDS011;33780;51.034;7.120;2022-07-23T06:14:19;6.93;;;4.07;;
48014;SDS011;33780;51.034;7.120;2022-07-23T06:16:44;6.95;;;4.00;;
48014;SDS011;33780;51.034;7.120;2022-07-23T06:19:10;7.53;;;4.55;;
48014;SDS011;33780;51.034;7.120;2022-07-23T06:21:35;8.45;;;4.45;;
48014;SDS011;33780;51.034;7.120;2022-07-23T06:24:00;8.77;;;4.43;;
48014;SDS011;33780;51.034;7.120;2022-07-23T06:26:25;7.57;;;4.10;;
48014;SDS011;33780;51.034;7.120;2022-07-23T06:28:51;8.10;;;4.75;;
48014;SDS011;33780;51.034;7.120;2022-07-23T06:31:17;10.52;;;4.85;;
48014;SDS011;33780;51.034;7.120;2022-07-23T06:33:42;10.90;;;4.70;;
48014;SDS011;33780;51.034;7.120;2022-07-23T06:36:07;10.43;;;4.90;;
48014;SDS011;33780;51.034;7.120;2022-07-23T06:38:33;9.13;;;4.72;;
48014;SDS011;33780;51.034;7.120;2022-07-23T06:40:58;9.10;;;4.85;;
48014;SDS011;33780;51.034;7.120;2022-07-23T06:43:23;10.60;;;4.30;;
48014;SDS011;33780;51.034;7.120;2022-07-23T06:45:49;9.18;;;4.47;;
48014;SDS011;33780;51.034;7.120;2022-07-23T06:48:14;8.88;;;4.70;;
48014;SDS011;33780;51.034;7.120;2022-07-23T06:50:39;9.75;;;4.80;;
48014;SDS011;33780;51.034;7.120;2022-07-23T06:53:04;8.52;;;4.68;;
48014;SDS011;33780;51.034;7.120;2022-07-23T06:55:30;9.82;;;4.65;;
48014;SDS011;33780;51.034;7.120;2022-07-23T06:57:56;9.63;;;4.63;;
48014;SDS011;33780;51.034;7.120;2022-07-23T07:00:21;7.68;;;3.70;;
48014;SDS011;33780;51.034;7.120;2022-07-23T07:02:46;8.50;;;4.53;;
48014;SDS011;33780;51.034;7.120;2022-07-23T07:05:12;8.73;;;4.18;;
48014;SDS011;33780;51.034;7.120;2022-07-23T07:07:37;8.43;;;4.55;;
48014;SDS011;33780;51.034;7.120;2022-07-23T07:10:03;7.10;;;3.97;;
48014;SDS011;33780;51.034;7.120;2022-07-23T07:12:29;8.63;;;4.10;;
48014;SDS011;33780;51.034;7.120;2022-07-23T07:14:54;8.57;;;3.95;;
48014;SDS011;33780;51.034;7.120;2022-07-23T07:17:19;6.70;;;3.67;;
48014;SDS011;33780;51.034;7.120;2022-07-23T07:19:44;7.85;;;4.05;;
48014;SDS011;33780;51.034;7.120;2022-07-23T07:22:10;9.70;;;3.92;;
48014;SDS011;33780;51.034;7.120;2022-07-23T07:24:35;8.23;;;4.18;;
48014;SDS011;33780;51.034;7.120;2022-07-23T07:27:00;6.78;;;3.90;;
48014;SDS011;33780;51.034;7.120;2022-07-23T07:29:26;9.00;;;4.38;;
48014;SDS011;33780;51.034;7.120;2022-07-23T07:31:52;7.03;;;3.67;;
48014;SDS011;33780;51.034;7.120;2022-07-23T07:34:17;6.88;;;3.88;;
48014;SDS011;33780;51.034;7.120;2022-07-23T07:36:42;9.02;;;3.83;;
48014;SDS011;33780;51.034;7.120;2022-07-23T07:39:08;9.25;;;4.38;;
48014;SDS011;33780;51.034;7.120;2022-07-23T07:41:35;8.55;;;4.40;;
48014;SDS011;33780;51.034;7.120;2022-07-23T07:44:01;9.25;;;4.47;;
48014;SDS011;33780;51.034;7.120;2022-07-23T07:46:26;9.00;;;4.10;;
48014;SDS011;33780;51.034;7.120;2022-07-23T07:48:52;7.88;;;4.35;;
48014;SDS011;33780;51.034;7.120;2022-07-23T07:51:18;10.02;;;4.38;;
48014;SDS011;33780;51.034;7.120;2022-07-23T07:53:43;8.55;;;4.60;;
48014;SDS011;33780;51.034;7.120;2022-07-23T07:56:08;8.32;;;4.47;;
48014;SDS011;33780;51.034;7.120;2022-07-23T07:58:34;8.57;;;4.57;;
48014;SDS011;33780;51.034;7.120;2022-07-23T08:00:59;11.02;;;5.03;;
48014;SDS011;33780;51.034;7.120;2022-07-23T08:03:25;10.82;;;4.60;;
48014;SDS011;33780;51.034;7.120;2022-07-23T08:05:51;11.70;;;4.70;;
48014;SDS011;33780;51.034;7.120;2022-07-23T08:08:16;8.35;;;4.13;;
48014;SDS011;33780;51.034;7.120;2022-07-23T08:10:42;9.05;;;3.80;;
48014;SDS011;33780;51.034;7.120;2022-07-23T08:13:08;7.43;;;3.78;;
48014;SDS011;33780;51.034;7.120;2022-07-23T08:15:38;7.80;;;3.85;;
48014;SDS011;33780;51.034;7.120;2022-07-23T08:18:03;10.07;;;4.25;;
48014;SDS011;33780;51.034;7.120;2022-07-23T08:20:29;9.43;;;4.75;;
48014;SDS011;33780;51.034;7.120;2022-07-23T08:22:55;10.50;;;4.47;;
48014;SDS011;33780;51.034;7.120;2022-07-23T08:27:49;10.15;;;4.72;;
48014;SDS011;33780;51.034;7.120;2022-07-23T08:30:15;8.88;;;4.93;;
48014;SDS011;33780;51.034;7.120;2022-07-23T08:32:52;10.02;;;4.10;;
48014;SDS011;33780;51.034;7.120;2022-07-23T08:35:30;6.75;;;4.03;;
48014;SDS011;33780;51.034;7.120;2022-07-23T08:37:58;10.23;;;4.53;;
48014;SDS011;33780;51.034;7.120;2022-07-23T08:40:29;8.07;;;4.53;;
48014;SDS011;33780;51.034;7.120;2022-07-23T08:42:55;6.72;;;4.13;;
48014;SDS011;33780;51.034;7.120;2022-07-23T08:45:23;7.80;;;3.95;;
48014;SDS011;33780;51.034;7.120;2022-07-23T08:47:51;8.23;;;4.03;;
48014;SDS011;33780;51.034;7.120;2022-07-23T08:50:18;7.68;;;4.03;;
48014;SDS011;33780;51.034;7.120;2022-07-23T08:52:44;8.68;;;4.10;;
48014;SDS011;33780;51.034;7.120;2022-07-23T08:55:10;8.15;;;4.35;;
48014;SDS011;33780;51.034;7.120;2022-07-23T08:57:36;7.95;;;4.07;;
48014;SDS011;33780;51.034;7.120;2022-07-23T09:00:02;8.85;;;4.18;;
48014;SDS011;33780;51.034;7.120;2022-07-23T09:02:29;8.82;;;3.90;;
48014;SDS011;33780;51.034;7.120;2022-07-23T09:04:54;6.30;;;3.67;;
48014;SDS011;33780;51.034;7.120;2022-07-23T09:07:20;6.78;;;4.07;;
48014;SDS011;33780;51.034;7.120;2022-07-23T09:09:45;9.20;;;3.67;;
48014;SDS011;33780;51.034;7.120;2022-07-23T09:12:10;5.63;;;3.22;;
48014;SDS011;33780;51.034;7.120;2022-07-23T09:14:43;12.40;;;3.97;;
48014;SDS011;33780;51.034;7.120;2022-07-23T09:17:21;8.70;;;4.45;;
48014;SDS011;33780;51.034;7.120;2022-07-23T09:19:46;6.07;;;3.80;;
48014;SDS011;33780;51.034;7.120;2022-07-23T09:22:25;7.80;;;4.13;;
48014;SDS011;33780;51.034;7.120;2022-07-23T09:25:05;6.88;;;3.72;;
48014;SDS011;33780;51.034;7.120;2022-07-23T09:27:54;8.55;;;3.90;;
48014;SDS011;33780;51.034;7.120;2022-07-23T09:30:22;6.93;;;3.45;;
48014;SDS011;33780;51.034;7.120;2022-07-23T09:35:51;6.65;;;4.13;;
48014;SDS011;33780;51.034;7.120;2022-07-23T09:38:19;7.60;;;3.90;;
48014;SDS011;33780;51.034;7.120;2022-07-23T09:40:45;8.40;;;4.25;;
48014;SDS011;33780;51.034;7.120;2022-07-23T09:43:13;7.22;;;4.13;;
48014;SDS011;33780;51.034;7.120;2022-07-23T09:45:53;8.77;;;4.38;;
48014;SDS011;33780;51.034;7.120;2022-07-23T09:48:18;6.38;;;3.58;;
48014;SDS011;33780;51.034;7.120;2022-07-23T09:50:44;5.65;;;3.08;;
48014;SDS011;33780;51.034;7.120;2022-07-23T09:53:23;5.97;;;3.47;;
48014;SDS011;33780;51.034;7.120;2022-07-23T09:55:50;9.45;;;4.72;;
48014;SDS011;33780;51.034;7.120;2022-07-23T09:58:16;8.05;;;4.53;;
48014;SDS011;33780;51.034;7.120;2022-07-23T10:00:43;5.90;;;3.83;;
48014;SDS011;33780;51.034;7.120;2022-07-23T10:03:10;5.32;;;3.65;;
48014;SDS011;33780;51.034;7.120;2022-07-23T10:05:38;5.53;;;3.10;;
48014;SDS011;33780;51.034;7.120;2022-07-23T10:08:04;9.00;;;4.38;;
48014;SDS011;33780;51.034;7.120;2022-07-23T10:10:35;7.68;;;4.20;;
48014;SDS011;33780;51.034;7.120;2022-07-23T10:13:01;8.68;;;4.60;;
48014;SDS011;33780;51.034;7.120;2022-07-23T10:15:56;5.75;;;3.80;;
48014;SDS011;33780;51.034;7.120;2022-07-23T10:18:21;5.78;;;3.75;;
48014;SDS011;33780;51.034;7.120;2022-07-23T10:20:47;5.93;;;3.88;;
48014;SDS011;33780;51.034;7.120;2022-07-23T10:29:11;6.55;;;3.88;;
48014;SDS011;33780;51.034;7.120;2022-07-23T10:34:41;6.97;;;4.57;;
48014;SDS011;33780;51.034;7.120;2022-07-23T10:37:28;8.27;;;4.70;;
48014;SDS011;33780;51.034;7.120;2022-07-23T10:40:09;4.93;;;3.40;;
48014;SDS011;33780;51.034;7.120;2022-07-23T10:42:42;5.03;;;2.88;;
48014;SDS011;33780;51.034;7.120;2022-07-23T10:47:52;4.43;;;3.55;;
48014;SDS011;33780;51.034;7.120;2022-07-23T10:50:22;5.13;;;3.85;;
48014;SDS011;33780;51.034;7.120;2022-07-23T10:57:58;6.30;;;4.50;;
48014;SDS011;33780;51.034;7.120;2022-07-23T11:00:24;6.03;;;4.05;;
48014;SDS011;33780;51.034;7.120;2022-07-23T11:02:55;7.93;;;4.80;;
48014;SDS011;33780;51.034;7.120;2022-07-23T11:05:24;6.45;;;4.30;;
48014;SDS011;33780;51.034;7.120;2022-07-23T11:10:38;5.63;;;3.97;;
48014;SDS011;33780;51.034;7.120;2022-07-23T11:32:24;5.20;;;3.60;;
48014;SDS011;33780;51.034;7.120;2022-07-23T11:34:48;4.47;;;3.35;;
48014;SDS011;33780;51.034;7.120;2022-07-23T11:37:28;5.40;;;3.42;;
48014;SDS011;33780;51.034;7.120;2022-07-23T11:39:58;5.45;;;3.35;;
48014;SDS011;33780;51.034;7.120;2022-07-23T11:42:24;5.43;;;3.55;;
48014;SDS011;33780;51.034;7.120;2022-07-23T11:44:50;4.65;;;3.03;;
48014;SDS011;33780;51.034;7.120;2022-07-23T11:47:20;5.43;;;3.50;;
48014;SDS011;33780;51.034;7.120;2022-07-23T11:49:54;5.55;;;3.50;;
48014;SDS011;33780;51.034;7.120;2022-07-23T11:52:21;4.30;;;3.22;;
48014;SDS011;33780;51.034;7.120;2022-07-23T11:55:02;5.75;;;3.70;;
48014;SDS011;33780;51.034;7.120;2022-07-23T11:57:36;6.13;;;3.30;;
48014;SDS011;33780;51.034;7.120;2022-07-23T12:00:08;4.07;;;3.30;;
48014;SDS011;33780;51.034;7.120;2022-07-23T12:02:45;4.65;;;2.85;;
48014;SDS011;33780;51.034;7.120;2022-07-23T12:05:13;3.38;;;2.40;;
48014;SDS011;33780;51.034;7.120;2022-07-23T12:07:41;3.28;;;2.30;;
48014;SDS011;33780;51.034;7.120;2022-07-23T12:10:23;4.53;;;2.75;;
48014;SDS011;33780;51.034;7.120;2022-07-23T12:12:50;3.17;;;2.40;;
48014;SDS011;33780;51.034;7.120;2022-07-23T12:15:16;4.28;;;2.90;;
48014;SDS011;33780;51.034;7.120;2022-07-23T12:17:46;4.93;;;3.15;;
48014;SDS011;33780;51.034;7.120;2022-07-23T12:20:13;6.55;;;3.10;;
48014;SDS011;33780;51.034;7.120;2022-07-23T12:22:41;4.50;;;3.10;;
48014;SDS011;33780;51.034;7.120;2022-07-23T12:25:15;5.40;;;3.03;;
48014;SDS011;33780;51.034;7.120;2022-07-23T12:27:42;4.57;;;2.88;;
48014;SDS011;33780;51.034;7.120;2022-07-23T12:30:15;4.57;;;3.10;;
48014;SDS011;33780;51.034;7.120;2022-07-23T12:32:42;3.90;;;3.00;;
48014;SDS011;33780;51.034;7.120;2022-07-23T12:35:09;5.20;;;3.47;;
48014;SDS011;33780;51.034;7.120;2022-07-23T12:37:35;4.20;;;3.13;;
48014;SDS011;33780;51.034;7.120;2022-07-23T12:42:47;4.60;;;3.13;;
48014;SDS011;33780;51.034;7.120;2022-07-23T12:45:13;5.35;;;3.85;;
48014;SDS011;33780;51.034;7.120;2022-07-23T12:47:59;6.63;;;4.00;;
48014;SDS011;33780;51.034;7.120;2022-07-23T12:50:31;5.75;;;3.55;;
48014;SDS011;33780;51.034;7.120;2022-07-23T12:53:02;5.53;;;3.78;;
48014;SDS011;33780;51.034;7.120;2022-07-23T12:55:29;6.25;;;3.90;;
48014;SDS011;33780;51.034;7.120;2022-07-23T12:58:02;4.38;;;3.33;;
48014;SDS011;33780;51.034;7.120;2022-07-23T13:05:54;5.93;;;3.33;;
48014;SDS011;33780;51.034;7.120;2022-07-23T13:08:21;5.78;;;3.42;;
48014;SDS011;33780;51.034;7.120;2022-07-23T13:10:47;6.95;;;4.40;;
48014;SDS011;33780;51.034;7.120;2022-07-23T13:13:14;6.10;;;3.60;;
48014;SDS011;33780;51.034;7.120;2022-07-23T13:15:40;6.90;;;3.92;;
48014;SDS011;33780;51.034;7.120;2022-07-23T13:18:05;8.18;;;3.67;;
48014;SDS011;33780;51.034;7.120;2022-07-23T13:20:31;6.65;;;4.10;;
48014;SDS011;33780;51.034;7.120;2022-07-23T13:22:57;5.53;;;3.97;;
48014;SDS011;33780;51.034;7.120;2022-07-23T13:25:23;5.40;;;3.33;;
48014;SDS011;33780;51.034;7.120;2022-07-23T13:27:48;5.68;;;3.72;;
48014;SDS011;33780;51.034;7.120;2022-07-23T13:30:13;7.15;;;4.13;;
48014;SDS011;33780;51.034;7.120;2022-07-23T13:32:40;8.05;;;4.25;;
48014;SDS011;33780;51.034;7.120;2022-07-23T13:35:05;6.38;;;4.10;;
48014;SDS011;33780;51.034;7.120;2022-07-23T13:37:31;5.28;;;3.47;;
48014;SDS011;33780;51.034;7.120;2022-07-23T13:39:56;5.40;;;3.58;;
48014;SDS011;33780;51.034;7.120;2022-07-23T13:42:21;6.00;;;3.30;;
48014;SDS011;33780;51.034;7.120;2022-07-23T13:44:47;5.55;;;3.78;;
48014;SDS011;33780;51.034;7.120;2022-07-23T13:47:12;6.45;;;3.33;;
48014;SDS011;33780;51.034;7.120;2022-07-23T13:49:37;7.40;;;3.80;;
48014;SDS011;33780;51.034;7.120;2022-07-23T13:52:03;5.75;;;3.60;;
48014;SDS011;33780;51.034;7.120;2022-07-23T13:54:29;5.43;;;3.28;;
48014;SDS011;33780;51.034;7.120;2022-07-23T13:56:54;5.60;;;3.33;;
48014;SDS011;33780;51.034;7.120;2022-07-23T13:59:20;6.68;;;3.20;;
48014;SDS011;33780;51.034;7.120;2022-07-23T14:01:46;4.65;;;2.88;;
48014;SDS011;33780;51.034;7.120;2022-07-23T14:04:11;5.55;;;3.00;;
48014;SDS011;33780;51.034;7.120;2022-07-23T14:06:36;5.35;;;3.10;;
48014;SDS011;33780;51.034;7.120;2022-07-23T14:09:02;7.22;;;3.45;;
48014;SDS011;33780;51.034;7.120;2022-07-23T14:11:27;4.93;;;2.80;;
48014;SDS011;33780;51.034;7.120;2022-07-23T14:13:55;5.50;;;2.70;;
48014;SDS011;33780;51.034;7.120;2022-07-23T14:16:21;4.10;;;2.47;;
48014;SDS011;33780;51.034;7.120;2022-07-23T14:18:46;4.40;;;3.05;;
48014;SDS011;33780;51.034;7.120;2022-07-23T14:21:12;4.35;;;2.75;;
48014;SDS011;33780;51.034;7.120;2022-07-23T14:23:37;4.70;;;2.67;;
48014;SDS011;33780;51.034;7.120;2022-07-23T14:26:02;5.72;;;2.60;;
48014;SDS011;33780;51.034;7.120;2022-07-23T14:28:27;4.53;;;2.72;;
48014;SDS011;33780;51.034;7.120;2022-07-23T14:30:53;4.78;;;2.70;;
48014;SDS011;33780;51.034;7.120;2022-07-23T14:33:18;3.67;;;2.60;;
48014;SDS011;33780;51.034;7.120;2022-07-23T14:35:44;6.15;;;2.45;;
48014;SDS011;33780;51.034;7.120;2022-07-23T14:38:09;3.75;;;2.30;;
48014;SDS011;33780;51.034;7.120;2022-07-23T14:40:35;4.05;;;2.40;;
48014;SDS011;33780;51.034;7.120;2022-07-23T14:43:00;3.90;;;2.25;;
48014;SDS011;33780;51.034;7.120;2022-07-23T14:45:26;4.80;;;2.30;;
48014;SDS011;33780;51.034;7.120;2022-07-23T14:47:51;4.53;;;2.20;;
48014;SDS011;33780;51.034;7.120;2022-07-23T14:50:16;4.97;;;2.20;;
48014;SDS011;33780;51.034;7.120;2022-07-23T14:52:42;4.75;;;2.25;;
48014;SDS011;33780;51.034;7.120;2022-07-23T14:55:07;5.18;;;2.20;;
48014;SDS011;33780;51.034;7.120;2022-07-23T14:57:33;5.85;;;2.13;;
48014;SDS011;33780;51.034;7.120;2022-07-23T14:59:58;3.33;;;2.20;;
48014;SDS011;33780;51.034;7.120;2022-07-23T15:02:23;4.38;;;2.08;;
48014;SDS011;33780;51.034;7.120;2022-07-23T15:04:49;3.50;;;2.17;;
48014;SDS011;33780;51.034;7.120;2022-07-23T15:07:14;4.22;;;2.38;;
48014;SDS011;33780;51.034;7.120;2022-07-23T15:09:39;3.40;;;2.20;;
48014;SDS011;33780;51.034;7.120;2022-07-23T15:12:05;4.25;;;2.38;;
48014;SDS011;33780;51.034;7.120;2022-07-23T15:14:30;3.45;;;2.00;;
48014;SDS011;33780;51.034;7.120;2022-07-23T15:16:55;5.05;;;2.42;;
48014;SDS011;33780;51.034;7.120;2022-07-23T15:19:21;4.20;;;2.30;;
48014;SDS011;33780;51.034;7.120;2022-07-23T15:21:46;3.60;;;2.30;;
48014;SDS011;33780;51.034;7.120;2022-07-23T15:24:12;7.50;;;2.20;;
48014;SDS011;33780;51.034;7.120;2022-07-23T15:26:37;3.58;;;2.38;;
48014;SDS011;33780;51.034;7.120;2022-07-23T15:29:02;3.50;;;2.38;;
48014;SDS011;33780;51.034;7.120;2022-07-23T15:31:28;4.10;;;2.22;;